sensor_id;sensor_type;location;lat;lon;timestamp;P1;durP1;ratioP1;P2;durP2;ratioP2
8592;SDS011;4334;49.982;8.398;2023-08-17T00:00:58;3.67;;;3.07;;
8592;SDS011;4334;49.982;8.398;2023-08-17T00:03:25;4.93;;;3.07;;
8592;SDS011;4334;49.982;8.398;2023-08-17T00:05:52;8.60;;;2.90;;
8592;SDS011;4334;49.982;8.398;2023-08-17T00:08:19;4.63;;;3.47;;
8592;SDS011;4334;49.982;8.398;2023-08-17T00:10:46;5.70;;;3.07;;
8592;SDS011;4334;49.982;8.398;2023-08-17T00:13:16;3.50;;;2.80;;
8592;SDS011;4334;49.982;8.398;2023-08-17T00:15:44;3.97;;;2.90;;
8592;SDS011;4334;49.982;8.398;2023-08-17T00:18:11;3.17;;;2.70;;
8592;SDS011;4334;49.982;8.398;2023-08-17T00:20:38;5.53;;;2.80;;
8592;SDS011;4334;49.982;8.398;2023-08-17T00:23:05;3.40;;;2.97;;
8592;SDS011;4334;49.982;8.398;2023-08-17T00:25:32;4.33;;;2.90;;
8592;SDS011;4334;49.982;8.398;2023-08-17T00:27:59;4.97;;;2.70;;
8592;SDS011;4334;49.982;8.398;2023-08-17T00:30:26;6.07;;;2.70;;
8592;SDS011;4334;49.982;8.398;2023-08-17T00:32:57;5.07;;;2.80;;
8592;SDS011;4334;49.982;8.398;2023-08-17T00:35:23;6.40;;;2.90;;
8592;SDS011;4334;49.982;8.398;2023-08-17T00:37:50;4.80;;;2.90;;
8592;SDS011;4334;49.982;8.398;2023-08-17T00:40:17;4.77;;;2.60;;
8592;SDS011;4334;49.982;8.398;2023-08-17T00:42:44;3.20;;;2.80;;
8592;SDS011;4334;49.982;8.398;2023-08-17T00:45:17;4.17;;;3.13;;
8592;SDS011;4334;49.982;8.398;2023-08-17T00:47:44;3.13;;;2.80;;
8592;SDS011;4334;49.982;8.398;2023-08-17T00:50:13;7.70;;;3.40;;
8592;SDS011;4334;49.982;8.398;2023-08-17T00:52:41;5.17;;;2.63;;
8592;SDS011;4334;49.982;8.398;2023-08-17T00:55:11;6.87;;;3.23;;
8592;SDS011;4334;49.982;8.398;2023-08-17T00:57:41;3.57;;;2.97;;
8592;SDS011;4334;49.982;8.398;2023-08-17T01:00:09;6.03;;;3.73;;
8592;SDS011;4334;49.982;8.398;2023-08-17T01:02:38;4.90;;;3.60;;
8592;SDS011;4334;49.982;8.398;2023-08-17T01:05:05;6.07;;;3.90;;
8592;SDS011;4334;49.982;8.398;2023-08-17T01:07:34;6.00;;;3.77;;
8592;SDS011;4334;49.982;8.398;2023-08-17T01:10:02;7.13;;;4.37;;
8592;SDS011;4334;49.982;8.398;2023-08-17T01:12:32;6.70;;;4.23;;
8592;SDS011;4334;49.982;8.398;2023-08-17T01:15:04;8.50;;;5.33;;
8592;SDS011;4334;49.982;8.398;2023-08-17T01:17:37;13.20;;;5.60;;
8592;SDS011;4334;49.982;8.398;2023-08-17T01:20:09;12.50;;;5.27;;
8592;SDS011;4334;49.982;8.398;2023-08-17T01:22:41;13.77;;;6.33;;
8592;SDS011;4334;49.982;8.398;2023-08-17T01:25:12;15.47;;;6.60;;
8592;SDS011;4334;49.982;8.398;2023-08-17T01:27:39;14.10;;;6.90;;
8592;SDS011;4334;49.982;8.398;2023-08-17T01:30:13;14.67;;;6.83;;
8592;SDS011;4334;49.982;8.398;2023-08-17T01:33:06;12.70;;;6.43;;
8592;SDS011;4334;49.982;8.398;2023-08-17T01:35:37;9.30;;;5.37;;
8592;SDS011;4334;49.982;8.398;2023-08-17T01:38:06;9.80;;;5.63;;
8592;SDS011;4334;49.982;8.398;2023-08-17T01:40:37;12.50;;;6.47;;
8592;SDS011;4334;49.982;8.398;2023-08-17T01:43:04;11.40;;;5.00;;
8592;SDS011;4334;49.982;8.398;2023-08-17T01:45:32;9.27;;;5.50;;
8592;SDS011;4334;49.982;8.398;2023-08-17T01:48:02;10.30;;;5.40;;
8592;SDS011;4334;49.982;8.398;2023-08-17T01:50:39;8.33;;;5.10;;
8592;SDS011;4334;49.982;8.398;2023-08-17T01:53:06;6.87;;;4.67;;
8592;SDS011;4334;49.982;8.398;2023-08-17T01:55:33;10.77;;;5.70;;
8592;SDS011;4334;49.982;8.398;2023-08-17T01:58:01;8.33;;;4.97;;
8592;SDS011;4334;49.982;8.398;2023-08-17T02:00:28;9.83;;;4.63;;
8592;SDS011;4334;49.982;8.398;2023-08-17T02:02:55;10.03;;;4.57;;
8592;SDS011;4334;49.982;8.398;2023-08-17T02:05:22;9.63;;;5.27;;
8592;SDS011;4334;49.982;8.398;2023-08-17T02:07:49;7.13;;;4.40;;
8592;SDS011;4334;49.982;8.398;2023-08-17T02:10:16;7.67;;;4.47;;
8592;SDS011;4334;49.982;8.398;2023-08-17T02:12:42;10.63;;;4.17;;
8592;SDS011;4334;49.982;8.398;2023-08-17T02:15:11;7.63;;;4.10;;
8592;SDS011;4334;49.982;8.398;2023-08-17T02:17:38;7.37;;;3.87;;
8592;SDS011;4334;49.982;8.398;2023-08-17T02:20:05;7.37;;;3.93;;
8592;SDS011;4334;49.982;8.398;2023-08-17T02:22:34;10.40;;;4.83;;
8592;SDS011;4334;49.982;8.398;2023-08-17T02:25:00;6.73;;;4.57;;
8592;SDS011;4334;49.982;8.398;2023-08-17T02:27:27;15.13;;;5.67;;
8592;SDS011;4334;49.982;8.398;2023-08-17T02:29:56;14.37;;;4.87;;
8592;SDS011;4334;49.982;8.398;2023-08-17T02:32:24;11.73;;;5.93;;
8592;SDS011;4334;49.982;8.398;2023-08-17T02:34:51;16.37;;;5.70;;
8592;SDS011;4334;49.982;8.398;2023-08-17T02:37:17;18.90;;;6.70;;
8592;SDS011;4334;49.982;8.398;2023-08-17T02:39:44;21.47;;;7.00;;
8592;SDS011;4334;49.982;8.398;2023-08-17T02:42:11;18.17;;;6.63;;
8592;SDS011;4334;49.982;8.398;2023-08-17T02:44:41;14.83;;;6.07;;
8592;SDS011;4334;49.982;8.398;2023-08-17T02:47:08;10.17;;;4.00;;
8592;SDS011;4334;49.982;8.398;2023-08-17T02:49:36;0.57;;;0.57;;
8592;SDS011;4334;49.982;8.398;2023-08-17T02:52:03;1.17;;;0.63;;
8592;SDS011;4334;49.982;8.398;2023-08-17T02:54:30;0.43;;;0.37;;
8592;SDS011;4334;49.982;8.398;2023-08-17T02:56:57;0.40;;;0.40;;
8592;SDS011;4334;49.982;8.398;2023-08-17T02:59:24;0.60;;;0.60;;
8592;SDS011;4334;49.982;8.398;2023-08-17T03:01:53;0.43;;;0.43;;
8592;SDS011;4334;49.982;8.398;2023-08-17T03:04:21;1.47;;;0.70;;
8592;SDS011;4334;49.982;8.398;2023-08-17T03:06:49;0.87;;;0.87;;
8592;SDS011;4334;49.982;8.398;2023-08-17T03:09:16;0.93;;;0.77;;
8592;SDS011;4334;49.982;8.398;2023-08-17T03:11:43;0.47;;;0.47;;
8592;SDS011;4334;49.982;8.398;2023-08-17T03:14:09;0.60;;;0.60;;
8592;SDS011;4334;49.982;8.398;2023-08-17T03:16:36;0.87;;;0.40;;
8592;SDS011;4334;49.982;8.398;2023-08-17T03:19:03;0.53;;;0.47;;
8592;SDS011;4334;49.982;8.398;2023-08-17T03:21:32;0.73;;;0.73;;
8592;SDS011;4334;49.982;8.398;2023-08-17T03:24:01;0.30;;;0.30;;
8592;SDS011;4334;49.982;8.398;2023-08-17T03:26:27;0.10;;;0.10;;
8592;SDS011;4334;49.982;8.398;2023-08-17T03:28:54;0.47;;;0.47;;
8592;SDS011;4334;49.982;8.398;2023-08-17T03:31:21;0.47;;;0.47;;
8592;SDS011;4334;49.982;8.398;2023-08-17T03:33:48;0.60;;;0.60;;
8592;SDS011;4334;49.982;8.398;2023-08-17T03:36:15;0.40;;;0.40;;
8592;SDS011;4334;49.982;8.398;2023-08-17T03:38:42;1.23;;;0.83;;
8592;SDS011;4334;49.982;8.398;2023-08-17T03:41:10;0.43;;;0.40;;
8592;SDS011;4334;49.982;8.398;2023-08-17T03:43:36;0.30;;;0.20;;
8592;SDS011;4334;49.982;8.398;2023-08-17T03:46:03;1.13;;;0.60;;
8592;SDS011;4334;49.982;8.398;2023-08-17T03:48:31;0.20;;;0.20;;
8592;SDS011;4334;49.982;8.398;2023-08-17T03:50:57;0.17;;;0.17;;
8592;SDS011;4334;49.982;8.398;2023-08-17T03:53:26;0.20;;;0.20;;
8592;SDS011;4334;49.982;8.398;2023-08-17T03:55:53;0.13;;;0.13;;
8592;SDS011;4334;49.982;8.398;2023-08-17T03:58:21;0.60;;;0.53;;
8592;SDS011;4334;49.982;8.398;2023-08-17T04:00:48;0.50;;;0.50;;
8592;SDS011;4334;49.982;8.398;2023-08-17T04:03:15;0.50;;;0.50;;
8592;SDS011;4334;49.982;8.398;2023-08-17T04:05:42;0.40;;;0.40;;
8592;SDS011;4334;49.982;8.398;2023-08-17T04:08:09;0.37;;;0.37;;
8592;SDS011;4334;49.982;8.398;2023-08-17T04:10:36;0.97;;;0.70;;
8592;SDS011;4334;49.982;8.398;2023-08-17T04:13:03;0.50;;;0.50;;
8592;SDS011;4334;49.982;8.398;2023-08-17T04:15:31;0.77;;;0.40;;
8592;SDS011;4334;49.982;8.398;2023-08-17T04:17:58;0.33;;;0.20;;
8592;SDS011;4334;49.982;8.398;2023-08-17T04:20:25;0.37;;;0.37;;
8592;SDS011;4334;49.982;8.398;2023-08-17T04:22:51;5.73;;;0.97;;
8592;SDS011;4334;49.982;8.398;2023-08-17T04:25:18;0.83;;;0.50;;
8592;SDS011;4334;49.982;8.398;2023-08-17T04:27:45;0.53;;;0.47;;
8592;SDS011;4334;49.982;8.398;2023-08-17T04:30:12;0.40;;;0.40;;
8592;SDS011;4334;49.982;8.398;2023-08-17T04:32:40;0.60;;;0.17;;
8592;SDS011;4334;49.982;8.398;2023-08-17T04:35:07;0.17;;;0.17;;
8592;SDS011;4334;49.982;8.398;2023-08-17T04:37:34;0.87;;;0.87;;
8592;SDS011;4334;49.982;8.398;2023-08-17T04:40:01;0.40;;;0.40;;
8592;SDS011;4334;49.982;8.398;2023-08-17T04:42:30;0.40;;;0.40;;
8592;SDS011;4334;49.982;8.398;2023-08-17T04:44:57;0.60;;;0.60;;
8592;SDS011;4334;49.982;8.398;2023-08-17T04:47:23;0.93;;;0.43;;
8592;SDS011;4334;49.982;8.398;2023-08-17T04:49:51;0.17;;;0.17;;
8592;SDS011;4334;49.982;8.398;2023-08-17T04:52:18;0.60;;;0.60;;
8592;SDS011;4334;49.982;8.398;2023-08-17T04:54:45;0.53;;;0.53;;
8592;SDS011;4334;49.982;8.398;2023-08-17T04:57:12;2.83;;;1.23;;
8592;SDS011;4334;49.982;8.398;2023-08-17T04:59:38;2.10;;;1.17;;
8592;SDS011;4334;49.982;8.398;2023-08-17T05:02:06;1.80;;;0.67;;
8592;SDS011;4334;49.982;8.398;2023-08-17T05:04:33;0.33;;;0.23;;
8592;SDS011;4334;49.982;8.398;2023-08-17T05:07:01;0.43;;;0.43;;
8592;SDS011;4334;49.982;8.398;2023-08-17T05:09:27;0.37;;;0.37;;
8592;SDS011;4334;49.982;8.398;2023-08-17T05:11:55;3.00;;;0.60;;
8592;SDS011;4334;49.982;8.398;2023-08-17T05:14:22;0.80;;;0.70;;
8592;SDS011;4334;49.982;8.398;2023-08-17T05:16:49;0.60;;;0.60;;
8592;SDS011;4334;49.982;8.398;2023-08-17T05:19:16;2.17;;;0.83;;
8592;SDS011;4334;49.982;8.398;2023-08-17T05:21:42;0.43;;;0.30;;
8592;SDS011;4334;49.982;8.398;2023-08-17T05:24:11;0.38;;;0.30;;
8592;SDS011;4334;49.982;8.398;2023-08-17T05:26:37;0.60;;;0.60;;
8592;SDS011;4334;49.982;8.398;2023-08-17T05:29:04;1.35;;;1.17;;
8592;SDS011;4334;49.982;8.398;2023-08-17T05:31:31;0.20;;;0.20;;
8592;SDS011;4334;49.982;8.398;2023-08-17T05:33:58;0.10;;;0.10;;
8592;SDS011;4334;49.982;8.398;2023-08-17T05:36:24;0.60;;;0.43;;
8592;SDS011;4334;49.982;8.398;2023-08-17T05:38:51;0.73;;;0.65;;
8592;SDS011;4334;49.982;8.398;2023-08-17T05:41:19;0.55;;;0.43;;
8592;SDS011;4334;49.982;8.398;2023-08-17T05:44:01;0.45;;;0.45;;
8592;SDS011;4334;49.982;8.398;2023-08-17T05:46:28;0.73;;;0.43;;
8592;SDS011;4334;49.982;8.398;2023-08-17T05:48:55;0.40;;;0.40;;
8592;SDS011;4334;49.982;8.398;2023-08-17T05:51:22;0.90;;;0.32;;
8592;SDS011;4334;49.982;8.398;2023-08-17T05:53:48;0.40;;;0.40;;
8592;SDS011;4334;49.982;8.398;2023-08-17T05:56:15;0.40;;;0.40;;
8592;SDS011;4334;49.982;8.398;2023-08-17T05:58:43;0.45;;;0.45;;
8592;SDS011;4334;49.982;8.398;2023-08-17T06:01:10;1.45;;;0.65;;
8592;SDS011;4334;49.982;8.398;2023-08-17T06:03:37;0.60;;;0.60;;
8592;SDS011;4334;49.982;8.398;2023-08-17T06:06:04;1.25;;;0.70;;
8592;SDS011;4334;49.982;8.398;2023-08-17T06:08:31;7.70;;;3.65;;
8592;SDS011;4334;49.982;8.398;2023-08-17T06:10:58;3.80;;;3.40;;
8592;SDS011;4334;49.982;8.398;2023-08-17T06:13:25;4.55;;;3.10;;
8592;SDS011;4334;49.982;8.398;2023-08-17T06:15:53;7.25;;;3.05;;
8592;SDS011;4334;49.982;8.398;2023-08-17T06:18:21;2.90;;;2.47;;
8592;SDS011;4334;49.982;8.398;2023-08-17T06:20:48;2.67;;;2.30;;
8592;SDS011;4334;49.982;8.398;2023-08-17T06:23:18;1.95;;;1.77;;
8592;SDS011;4334;49.982;8.398;2023-08-17T06:25:45;2.13;;;1.80;;
8592;SDS011;4334;49.982;8.398;2023-08-17T06:28:12;2.22;;;2.00;;
8592;SDS011;4334;49.982;8.398;2023-08-17T06:30:39;2.95;;;2.13;;
8592;SDS011;4334;49.982;8.398;2023-08-17T06:33:07;4.72;;;1.85;;
8592;SDS011;4334;49.982;8.398;2023-08-17T06:35:33;3.58;;;2.10;;
8592;SDS011;4334;49.982;8.398;2023-08-17T06:38:01;2.33;;;2.10;;
8592;SDS011;4334;49.982;8.398;2023-08-17T06:40:27;3.25;;;2.10;;
8592;SDS011;4334;49.982;8.398;2023-08-17T06:42:54;2.15;;;1.95;;
8592;SDS011;4334;49.982;8.398;2023-08-17T06:45:21;4.50;;;2.22;;
8592;SDS011;4334;49.982;8.398;2023-08-17T06:47:48;2.20;;;2.00;;
8592;SDS011;4334;49.982;8.398;2023-08-17T06:50:16;2.10;;;1.80;;
8592;SDS011;4334;49.982;8.398;2023-08-17T06:52:43;2.90;;;2.30;;
8592;SDS011;4334;49.982;8.398;2023-08-17T06:55:09;2.30;;;2.10;;
8592;SDS011;4334;49.982;8.398;2023-08-17T06:57:36;2.20;;;2.00;;
8592;SDS011;4334;49.982;8.398;2023-08-17T07:00:03;1.83;;;1.63;;
8592;SDS011;4334;49.982;8.398;2023-08-17T07:02:32;3.40;;;2.00;;
8592;SDS011;4334;49.982;8.398;2023-08-17T07:04:59;3.15;;;2.03;;
8592;SDS011;4334;49.982;8.398;2023-08-17T07:07:28;1.95;;;1.77;;
8592;SDS011;4334;49.982;8.398;2023-08-17T07:09:55;1.70;;;1.60;;
8592;SDS011;4334;49.982;8.398;2023-08-17T07:12:22;2.03;;;1.80;;
8592;SDS011;4334;49.982;8.398;2023-08-17T07:14:50;1.90;;;1.70;;
8592;SDS011;4334;49.982;8.398;2023-08-17T07:17:16;1.42;;;1.33;;
8592;SDS011;4334;49.982;8.398;2023-08-17T07:19:43;2.88;;;1.80;;
8592;SDS011;4334;49.982;8.398;2023-08-17T07:22:10;2.25;;;1.85;;
8592;SDS011;4334;49.982;8.398;2023-08-17T07:24:38;2.47;;;1.60;;
8592;SDS011;4334;49.982;8.398;2023-08-17T07:27:04;2.95;;;1.70;;
8592;SDS011;4334;49.982;8.398;2023-08-17T07:29:31;2.15;;;1.60;;
8592;SDS011;4334;49.982;8.398;2023-08-17T07:31:58;3.55;;;1.50;;
8592;SDS011;4334;49.982;8.398;2023-08-17T07:34:27;2.45;;;1.60;;
8592;SDS011;4334;49.982;8.398;2023-08-17T07:36:54;2.55;;;1.88;;
8592;SDS011;4334;49.982;8.398;2023-08-17T07:39:20;2.28;;;2.08;;
8592;SDS011;4334;49.982;8.398;2023-08-17T07:41:49;2.08;;;1.98;;
8592;SDS011;4334;49.982;8.398;2023-08-17T07:44:15;2.78;;;2.10;;
8592;SDS011;4334;49.982;8.398;2023-08-17T07:46:42;2.53;;;1.90;;
8592;SDS011;4334;49.982;8.398;2023-08-17T07:49:09;2.15;;;1.85;;
8592;SDS011;4334;49.982;8.398;2023-08-17T07:51:36;2.60;;;2.30;;
8592;SDS011;4334;49.982;8.398;2023-08-17T07:54:02;2.67;;;2.38;;
8592;SDS011;4334;49.982;8.398;2023-08-17T07:56:29;5.30;;;2.50;;
8592;SDS011;4334;49.982;8.398;2023-08-17T07:58:58;2.63;;;2.42;;
8592;SDS011;4334;49.982;8.398;2023-08-17T08:01:25;3.15;;;2.60;;
8592;SDS011;4334;49.982;8.398;2023-08-17T08:03:51;4.45;;;3.03;;
8592;SDS011;4334;49.982;8.398;2023-08-17T08:06:18;3.55;;;2.80;;
8592;SDS011;4334;49.982;8.398;2023-08-17T08:08:45;5.45;;;2.75;;
8592;SDS011;4334;49.982;8.398;2023-08-17T08:11:12;4.15;;;3.08;;
8592;SDS011;4334;49.982;8.398;2023-08-17T08:13:39;3.40;;;3.10;;
8592;SDS011;4334;49.982;8.398;2023-08-17T08:16:07;4.47;;;3.40;;
8592;SDS011;4334;49.982;8.398;2023-08-17T08:18:33;4.15;;;3.75;;
8592;SDS011;4334;49.982;8.398;2023-08-17T08:21:00;4.03;;;3.60;;
8592;SDS011;4334;49.982;8.398;2023-08-17T08:23:27;3.85;;;3.47;;
8592;SDS011;4334;49.982;8.398;2023-08-17T08:25:54;3.70;;;3.40;;
8592;SDS011;4334;49.982;8.398;2023-08-17T08:28:23;4.70;;;3.28;;
8592;SDS011;4334;49.982;8.398;2023-08-17T08:30:50;3.22;;;2.85;;
8592;SDS011;4334;49.982;8.398;2023-08-17T08:33:18;5.25;;;2.85;;
8592;SDS011;4334;49.982;8.398;2023-08-17T08:35:45;3.20;;;2.90;;
8592;SDS011;4334;49.982;8.398;2023-08-17T08:38:13;3.28;;;2.97;;
8592;SDS011;4334;49.982;8.398;2023-08-17T08:40:40;3.03;;;2.70;;
8592;SDS011;4334;49.982;8.398;2023-08-17T08:43:08;4.43;;;2.95;;
8592;SDS011;4334;49.982;8.398;2023-08-17T08:45:35;3.50;;;3.20;;
8592;SDS011;4334;49.982;8.398;2023-08-17T08:48:03;3.63;;;3.33;;
8592;SDS011;4334;49.982;8.398;2023-08-17T08:50:32;5.03;;;3.50;;
8592;SDS011;4334;49.982;8.398;2023-08-17T08:53:02;4.55;;;4.15;;
8592;SDS011;4334;49.982;8.398;2023-08-17T08:55:30;4.55;;;4.15;;
8592;SDS011;4334;49.982;8.398;2023-08-17T08:58:03;4.68;;;4.00;;
8592;SDS011;4334;49.982;8.398;2023-08-17T09:00:30;5.53;;;4.55;;
8592;SDS011;4334;49.982;8.398;2023-08-17T09:02:58;6.10;;;4.32;;
8592;SDS011;4334;49.982;8.398;2023-08-17T09:05:27;8.55;;;4.70;;
8592;SDS011;4334;49.982;8.398;2023-08-17T09:07:56;4.75;;;4.30;;
8592;SDS011;4334;49.982;8.398;2023-08-17T09:10:24;4.60;;;4.10;;
8592;SDS011;4334;49.982;8.398;2023-08-17T09:12:50;4.55;;;3.30;;
8592;SDS011;4334;49.982;8.398;2023-08-17T09:15:20;3.65;;;3.22;;
8592;SDS011;4334;49.982;8.398;2023-08-17T09:17:47;4.00;;;3.22;;
8592;SDS011;4334;49.982;8.398;2023-08-17T09:23:04;5.22;;;3.17;;
8592;SDS011;4334;49.982;8.398;2023-08-17T09:25:37;4.25;;;3.30;;
8592;SDS011;4334;49.982;8.398;2023-08-17T09:28:06;3.95;;;3.20;;
8592;SDS011;4334;49.982;8.398;2023-08-17T09:30:43;3.92;;;3.38;;
8592;SDS011;4334;49.982;8.398;2023-08-17T09:33:19;3.53;;;2.85;;
8592;SDS011;4334;49.982;8.398;2023-08-17T09:35:47;2.97;;;2.60;;
8592;SDS011;4334;49.982;8.398;2023-08-17T09:38:15;2.70;;;2.50;;
8592;SDS011;4334;49.982;8.398;2023-08-17T09:40:43;3.47;;;3.17;;
8592;SDS011;4334;49.982;8.398;2023-08-17T09:43:09;3.58;;;3.17;;
8592;SDS011;4334;49.982;8.398;2023-08-17T09:45:37;4.43;;;3.25;;
8592;SDS011;4334;49.982;8.398;2023-08-17T09:48:04;3.30;;;3.00;;
8592;SDS011;4334;49.982;8.398;2023-08-17T09:50:32;3.25;;;2.95;;
8592;SDS011;4334;49.982;8.398;2023-08-17T09:52:59;3.25;;;2.95;;
8592;SDS011;4334;49.982;8.398;2023-08-17T09:55:27;3.83;;;3.45;;
8592;SDS011;4334;49.982;8.398;2023-08-17T09:57:56;3.30;;;3.00;;
8592;SDS011;4334;49.982;8.398;2023-08-17T10:00:24;5.70;;;3.65;;
8592;SDS011;4334;49.982;8.398;2023-08-17T10:02:53;4.72;;;2.78;;
8592;SDS011;4334;49.982;8.398;2023-08-17T10:05:21;3.85;;;3.13;;
8592;SDS011;4334;49.982;8.398;2023-08-17T10:07:51;4.85;;;3.00;;
8592;SDS011;4334;49.982;8.398;2023-08-17T10:10:21;2.53;;;2.33;;
8592;SDS011;4334;49.982;8.398;2023-08-17T10:12:53;2.90;;;2.10;;
8592;SDS011;4334;49.982;8.398;2023-08-17T10:15:29;2.30;;;2.10;;
8592;SDS011;4334;49.982;8.398;2023-08-17T10:17:58;1.70;;;1.60;;
8592;SDS011;4334;49.982;8.398;2023-08-17T10:20:31;5.60;;;2.08;;
8592;SDS011;4334;49.982;8.398;2023-08-17T10:23:01;2.50;;;1.98;;
8592;SDS011;4334;49.982;8.398;2023-08-17T10:25:36;2.08;;;1.65;;
8592;SDS011;4334;49.982;8.398;2023-08-17T10:28:08;1.80;;;1.70;;
8592;SDS011;4334;49.982;8.398;2023-08-17T10:30:36;1.70;;;1.60;;
8592;SDS011;4334;49.982;8.398;2023-08-17T10:33:04;1.80;;;1.70;;
8592;SDS011;4334;49.982;8.398;2023-08-17T10:35:31;2.53;;;1.70;;
8592;SDS011;4334;49.982;8.398;2023-08-17T10:37:59;1.70;;;1.60;;
8592;SDS011;4334;49.982;8.398;2023-08-17T10:40:28;1.85;;;1.75;;
8592;SDS011;4334;49.982;8.398;2023-08-17T10:43:00;1.70;;;1.60;;
8592;SDS011;4334;49.982;8.398;2023-08-17T10:45:30;2.40;;;1.60;;
8592;SDS011;4334;49.982;8.398;2023-08-17T10:48:00;2.53;;;1.65;;
8592;SDS011;4334;49.982;8.398;2023-08-17T10:50:58;2.17;;;1.70;;
8592;SDS011;4334;49.982;8.398;2023-08-17T10:53:30;2.80;;;1.92;;
8592;SDS011;4334;49.982;8.398;2023-08-17T10:56:01;2.00;;;1.80;;
8592;SDS011;4334;49.982;8.398;2023-08-17T10:58:30;1.90;;;1.60;;
8592;SDS011;4334;49.982;8.398;2023-08-17T11:01:00;3.20;;;1.80;;
8592;SDS011;4334;49.982;8.398;2023-08-17T11:03:27;1.60;;;1.48;;
8592;SDS011;4334;49.982;8.398;2023-08-17T11:05:54;2.53;;;1.58;;
8592;SDS011;4334;49.982;8.398;2023-08-17T11:08:22;3.15;;;1.75;;
8592;SDS011;4334;49.982;8.398;2023-08-17T11:10:56;1.80;;;1.60;;
8592;SDS011;4334;49.982;8.398;2023-08-17T11:13:26;2.90;;;1.45;;
8592;SDS011;4334;49.982;8.398;2023-08-17T11:15:54;1.52;;;1.42;;
8592;SDS011;4334;49.982;8.398;2023-08-17T11:18:22;2.00;;;1.80;;
8592;SDS011;4334;49.982;8.398;2023-08-17T11:20:52;1.80;;;1.70;;
8592;SDS011;4334;49.982;8.398;2023-08-17T11:23:20;1.60;;;1.50;;
8592;SDS011;4334;49.982;8.398;2023-08-17T11:25:47;1.70;;;1.60;;
8592;SDS011;4334;49.982;8.398;2023-08-17T11:28:16;2.38;;;1.90;;
8592;SDS011;4334;49.982;8.398;2023-08-17T11:30:43;1.60;;;1.50;;
8592;SDS011;4334;49.982;8.398;2023-08-17T11:33:10;2.08;;;1.63;;
8592;SDS011;4334;49.982;8.398;2023-08-17T11:35:38;1.95;;;1.70;;
8592;SDS011;4334;49.982;8.398;2023-08-17T11:38:05;1.60;;;1.50;;
8592;SDS011;4334;49.982;8.398;2023-08-17T11:40:33;2.03;;;1.77;;
8592;SDS011;4334;49.982;8.398;2023-08-17T11:43:00;1.70;;;1.60;;
8592;SDS011;4334;49.982;8.398;2023-08-17T11:45:27;2.75;;;1.50;;
8592;SDS011;4334;49.982;8.398;2023-08-17T11:47:54;1.98;;;1.77;;
8592;SDS011;4334;49.982;8.398;2023-08-17T11:50:24;1.60;;;1.50;;
8592;SDS011;4334;49.982;8.398;2023-08-17T11:52:52;1.60;;;1.50;;
8592;SDS011;4334;49.982;8.398;2023-08-17T11:55:19;2.13;;;1.65;;
8592;SDS011;4334;49.982;8.398;2023-08-17T11:57:46;1.67;;;1.45;;
8592;SDS011;4334;49.982;8.398;2023-08-17T12:00:17;1.85;;;1.75;;
8592;SDS011;4334;49.982;8.398;2023-08-17T12:02:46;1.65;;;1.55;;
8592;SDS011;4334;49.982;8.398;2023-08-17T12:05:13;1.80;;;1.65;;
8592;SDS011;4334;49.982;8.398;2023-08-17T12:07:45;1.40;;;1.30;;
8592;SDS011;4334;49.982;8.398;2023-08-17T12:10:13;1.73;;;1.50;;
8592;SDS011;4334;49.982;8.398;2023-08-17T12:12:40;1.50;;;1.40;;
8592;SDS011;4334;49.982;8.398;2023-08-17T12:15:09;1.60;;;1.50;;
8592;SDS011;4334;49.982;8.398;2023-08-17T12:17:37;1.40;;;1.30;;
8592;SDS011;4334;49.982;8.398;2023-08-17T12:20:15;1.55;;;1.45;;
8592;SDS011;4334;49.982;8.398;2023-08-17T12:22:43;1.60;;;1.50;;
8592;SDS011;4334;49.982;8.398;2023-08-17T12:25:09;1.40;;;1.30;;
8592;SDS011;4334;49.982;8.398;2023-08-17T12:27:38;1.70;;;1.40;;
8592;SDS011;4334;49.982;8.398;2023-08-17T12:30:11;1.83;;;1.50;;
8592;SDS011;4334;49.982;8.398;2023-08-17T12:32:38;1.65;;;1.40;;
8592;SDS011;4334;49.982;8.398;2023-08-17T12:35:06;1.35;;;1.25;;
8592;SDS011;4334;49.982;8.398;2023-08-17T12:37:34;3.08;;;1.40;;
8592;SDS011;4334;49.982;8.398;2023-08-17T12:40:01;1.45;;;1.35;;
8592;SDS011;4334;49.982;8.398;2023-08-17T12:42:29;1.50;;;1.40;;
8592;SDS011;4334;49.982;8.398;2023-08-17T12:44:58;1.52;;;1.30;;
8592;SDS011;4334;49.982;8.398;2023-08-17T12:47:26;1.55;;;1.45;;
8592;SDS011;4334;49.982;8.398;2023-08-17T12:49:52;3.22;;;1.60;;
8592;SDS011;4334;49.982;8.398;2023-08-17T12:52:19;1.70;;;1.60;;
8592;SDS011;4334;49.982;8.398;2023-08-17T12:54:46;1.50;;;1.40;;
8592;SDS011;4334;49.982;8.398;2023-08-17T12:57:13;3.03;;;1.50;;
8592;SDS011;4334;49.982;8.398;2023-08-17T12:59:40;1.80;;;1.70;;
8592;SDS011;4334;49.982;8.398;2023-08-17T13:02:08;1.60;;;1.50;;
8592;SDS011;4334;49.982;8.398;2023-08-17T13:04:34;1.73;;;1.60;;
8592;SDS011;4334;49.982;8.398;2023-08-17T13:07:01;1.65;;;1.55;;
8592;SDS011;4334;49.982;8.398;2023-08-17T13:09:28;2.03;;;1.77;;
8592;SDS011;4334;49.982;8.398;2023-08-17T13:11:55;2.10;;;1.90;;
8592;SDS011;4334;49.982;8.398;2023-08-17T13:14:22;2.13;;;1.90;;
8592;SDS011;4334;49.982;8.398;2023-08-17T13:16:49;3.47;;;2.00;;
8592;SDS011;4334;49.982;8.398;2023-08-17T13:19:17;2.00;;;1.90;;
8592;SDS011;4334;49.982;8.398;2023-08-17T13:21:44;2.20;;;2.00;;
8592;SDS011;4334;49.982;8.398;2023-08-17T13:24:11;2.42;;;2.00;;
8592;SDS011;4334;49.982;8.398;2023-08-17T13:26:39;2.28;;;1.98;;
8592;SDS011;4334;49.982;8.398;2023-08-17T13:29:06;3.20;;;1.88;;
8592;SDS011;4334;49.982;8.398;2023-08-17T13:31:34;2.08;;;1.83;;
8592;SDS011;4334;49.982;8.398;2023-08-17T13:34:01;2.22;;;2.00;;
8592;SDS011;4334;49.982;8.398;2023-08-17T13:36:29;2.15;;;1.83;;
8592;SDS011;4334;49.982;8.398;2023-08-17T13:38:56;2.13;;;1.70;;
8592;SDS011;4334;49.982;8.398;2023-08-17T13:41:23;2.05;;;1.90;;
8592;SDS011;4334;49.982;8.398;2023-08-17T13:43:50;2.08;;;1.90;;
8592;SDS011;4334;49.982;8.398;2023-08-17T13:46:17;2.10;;;1.90;;
8592;SDS011;4334;49.982;8.398;2023-08-17T13:48:43;2.25;;;1.80;;
8592;SDS011;4334;49.982;8.398;2023-08-17T13:51:10;1.67;;;1.58;;
8592;SDS011;4334;49.982;8.398;2023-08-17T13:53:38;4.40;;;1.70;;
8592;SDS011;4334;49.982;8.398;2023-08-17T13:56:05;5.22;;;1.80;;
8592;SDS011;4334;49.982;8.398;2023-08-17T13:58:32;3.10;;;1.83;;
8592;SDS011;4334;49.982;8.398;2023-08-17T14:00:59;1.60;;;1.50;;
8592;SDS011;4334;49.982;8.398;2023-08-17T14:03:26;1.55;;;1.45;;
8592;SDS011;4334;49.982;8.398;2023-08-17T14:05:53;4.00;;;1.65;;
8592;SDS011;4334;49.982;8.398;2023-08-17T14:08:21;1.55;;;1.45;;
8592;SDS011;4334;49.982;8.398;2023-08-17T14:10:49;1.73;;;1.60;;
8592;SDS011;4334;49.982;8.398;2023-08-17T14:13:19;1.60;;;1.50;;
8592;SDS011;4334;49.982;8.398;2023-08-17T14:15:46;1.52;;;1.42;;
8592;SDS011;4334;49.982;8.398;2023-08-17T14:18:13;2.25;;;1.50;;
8592;SDS011;4334;49.982;8.398;2023-08-17T14:20:39;1.48;;;1.38;;
8592;SDS011;4334;49.982;8.398;2023-08-17T14:23:06;1.50;;;1.40;;
8592;SDS011;4334;49.982;8.398;2023-08-17T14:25:33;1.70;;;1.50;;
8592;SDS011;4334;49.982;8.398;2023-08-17T14:28:02;1.80;;;1.50;;
8592;SDS011;4334;49.982;8.398;2023-08-17T14:30:30;4.00;;;1.70;;
8592;SDS011;4334;49.982;8.398;2023-08-17T14:32:57;1.52;;;1.42;;
8592;SDS011;4334;49.982;8.398;2023-08-17T14:35:24;1.83;;;1.50;;
8592;SDS011;4334;49.982;8.398;2023-08-17T14:37:52;3.65;;;1.40;;
8592;SDS011;4334;49.982;8.398;2023-08-17T14:40:22;2.10;;;1.70;;
8592;SDS011;4334;49.982;8.398;2023-08-17T14:42:49;1.58;;;1.48;;
8592;SDS011;4334;49.982;8.398;2023-08-17T14:45:17;1.60;;;1.50;;
8592;SDS011;4334;49.982;8.398;2023-08-17T14:47:44;1.65;;;1.55;;
8592;SDS011;4334;49.982;8.398;2023-08-17T14:50:11;1.65;;;1.48;;
8592;SDS011;4334;49.982;8.398;2023-08-17T14:52:39;1.50;;;1.40;;
8592;SDS011;4334;49.982;8.398;2023-08-17T14:55:06;1.77;;;1.67;;
8592;SDS011;4334;49.982;8.398;2023-08-17T14:57:34;1.55;;;1.45;;
8592;SDS011;4334;49.982;8.398;2023-08-17T15:00:00;1.50;;;1.40;;
8592;SDS011;4334;49.982;8.398;2023-08-17T15:02:29;1.40;;;1.30;;
8592;SDS011;4334;49.982;8.398;2023-08-17T15:04:56;1.70;;;1.40;;
8592;SDS011;4334;49.982;8.398;2023-08-17T15:07:23;1.52;;;1.35;;
8592;SDS011;4334;49.982;8.398;2023-08-17T15:09:49;1.80;;;1.65;;
8592;SDS011;4334;49.982;8.398;2023-08-17T15:12:17;1.73;;;1.40;;
8592;SDS011;4334;49.982;8.398;2023-08-17T15:14:44;1.73;;;1.25;;
8592;SDS011;4334;49.982;8.398;2023-08-17T15:17:11;1.48;;;1.38;;
8592;SDS011;4334;49.982;8.398;2023-08-17T15:19:39;1.92;;;1.77;;
8592;SDS011;4334;49.982;8.398;2023-08-17T15:22:06;1.65;;;1.42;;